createdAt,value
2024-02-29T00:01:03.502Z,2.70
2024-02-29T00:03:31.004Z,2.17
2024-02-29T00:05:58.454Z,1.88
2024-02-29T00:08:27.318Z,2.10
2024-02-29T00:10:54.970Z,2.25
2024-02-29T00:13:22.769Z,2.53
2024-02-29T00:15:50.228Z,2.85
2024-02-29T00:18:17.773Z,1.92
2024-02-29T00:20:45.322Z,3.28
2024-02-29T00:23:12.839Z,2.30
2024-02-29T00:25:40.259Z,2.40
2024-02-29T00:28:07.821Z,2.45
2024-02-29T00:30:35.331Z,2.75
2024-02-29T00:33:04.695Z,3.05
2024-02-29T00:35:33.168Z,2.58
2024-02-29T00:38:00.609Z,2.55
2024-02-29T00:40:28.044Z,2.75
2024-02-29T00:42:55.648Z,2.50
2024-02-29T00:45:23.157Z,2.70
2024-02-29T00:47:51.429Z,2.17
2024-02-29T00:50:18.909Z,2.22
2024-02-29T00:52:46.329Z,2.55
2024-02-29T00:55:14.620Z,2.50
2024-02-29T00:57:42.213Z,2.67
2024-02-29T01:00:13.339Z,2.75
2024-02-29T01:02:40.971Z,2.58
2024-02-29T01:05:08.845Z,1.92
2024-02-29T01:07:37.992Z,2.20
2024-02-29T01:10:06.981Z,2.95
2024-02-29T01:12:36.363Z,2.50
2024-02-29T01:15:03.932Z,2.13
2024-02-29T01:17:32.017Z,2.20
2024-02-29T01:19:59.477Z,1.90
2024-02-29T01:22:27.042Z,2.33
2024-02-29T01:24:54.569Z,2.15
2024-02-29T01:27:22.636Z,2.15
2024-02-29T01:29:50.147Z,1.90
2024-02-29T01:32:22.724Z,1.85
2024-02-29T01:34:54.649Z,1.80
2024-02-29T01:37:22.187Z,1.73
2024-02-29T01:39:49.778Z,2.13
2024-02-29T01:42:17.176Z,2.08
2024-02-29T01:45:00.271Z,1.75
2024-02-29T01:47:27.964Z,2.67
2024-02-29T01:49:59.406Z,2.95
2024-02-29T01:52:28.138Z,1.95
2024-02-29T01:54:55.965Z,2.28
2024-02-29T01:57:24.196Z,1.65
2024-02-29T01:59:51.865Z,2.05
2024-02-29T02:02:19.748Z,2.65
2024-02-29T02:04:47.435Z,2.03
2024-02-29T02:07:15.250Z,2.30
2024-02-29T02:09:44.058Z,1.73
2024-02-29T02:12:12.705Z,1.75
2024-02-29T02:14:41.507Z,1.48
2024-02-29T02:17:11.053Z,2.05
2024-02-29T02:19:40.263Z,2.00
2024-02-29T02:22:08.063Z,1.88
2024-02-29T02:24:36.705Z,1.45
2024-02-29T02:27:04.796Z,1.95
2024-02-29T02:29:32.426Z,2.17
2024-02-29T02:31:59.915Z,1.15
2024-02-29T02:34:27.376Z,1.50
2024-02-29T02:36:54.928Z,1.92
2024-02-29T02:39:22.478Z,2.03
2024-02-29T02:41:50.243Z,2.00
2024-02-29T02:44:17.699Z,1.45
2024-02-29T02:46:45.439Z,2.15
2024-02-29T02:49:13.106Z,1.33
2024-02-29T02:51:40.653Z,1.13
2024-02-29T02:54:08.122Z,1.65
2024-02-29T02:56:35.638Z,1.67
2024-02-29T02:59:03.135Z,1.73
2024-02-29T03:01:30.910Z,1.48
2024-02-29T03:03:59.494Z,2.00
2024-02-29T03:06:27.392Z,1.65
2024-02-29T03:08:54.779Z,1.45
2024-02-29T03:11:22.266Z,1.70
2024-02-29T03:13:49.886Z,1.70
2024-02-29T03:16:25.083Z,1.90
2024-02-29T03:18:52.992Z,1.35
2024-02-29T03:21:20.660Z,1.65
2024-02-29T03:23:48.828Z,1.58
2024-02-29T03:26:16.626Z,1.27
2024-02-29T03:28:44.095Z,1.75
2024-02-29T03:31:12.954Z,1.17
2024-02-29T03:33:41.086Z,1.45
2024-02-29T03:36:09.533Z,1.27
2024-02-29T03:38:38.392Z,1.75
2024-02-29T03:41:08.128Z,1.30
2024-02-29T03:43:36.215Z,1.50
2024-02-29T03:46:04.412Z,1.20
2024-02-29T03:48:32.127Z,1.10
2024-02-29T03:50:59.781Z,1.17
2024-02-29T03:53:27.354Z,1.30
2024-02-29T03:55:56.371Z,1.23
2024-02-29T03:58:23.867Z,1.98
2024-02-29T04:00:51.582Z,1.25
2024-02-29T04:03:19.365Z,1.48
2024-02-29T04:05:46.859Z,1.23
2024-02-29T04:08:14.621Z,1.10
2024-02-29T04:10:47.558Z,0.90
2024-02-29T04:13:15.268Z,0.70
2024-02-29T04:15:43.460Z,1.00
2024-02-29T04:18:11.922Z,1.20
2024-02-29T04:20:39.568Z,0.80
2024-02-29T04:23:07.229Z,1.73
2024-02-29T04:25:34.764Z,2.08
2024-02-29T04:28:02.367Z,1.20
2024-02-29T04:30:30.430Z,1.20
2024-02-29T04:32:58.715Z,1.45
2024-02-29T04:35:26.380Z,1.20
2024-02-29T04:37:54.183Z,1.10
2024-02-29T04:40:22.285Z,1.58
2024-02-29T04:42:49.887Z,1.00
2024-02-29T04:45:17.593Z,1.40
2024-02-29T04:47:45.346Z,1.48
2024-02-29T04:50:12.922Z,1.65
2024-02-29T04:52:40.404Z,1.63
2024-02-29T04:55:08.342Z,1.02
2024-02-29T04:57:37.618Z,1.45
2024-02-29T05:00:07.687Z,1.10
2024-02-29T05:02:35.283Z,1.20
2024-02-29T05:05:02.927Z,1.25
2024-02-29T05:07:32.400Z,1.23
2024-02-29T05:10:00.101Z,1.13
2024-02-29T05:12:28.350Z,1.10
2024-02-29T05:14:55.920Z,1.08
2024-02-29T05:17:23.584Z,1.38
2024-02-29T05:19:51.584Z,1.08
2024-02-29T05:22:19.768Z,1.00
2024-02-29T05:24:47.318Z,1.60
2024-02-29T05:27:14.912Z,0.88
2024-02-29T05:29:42.424Z,1.45
2024-02-29T05:32:10.079Z,1.40
2024-02-29T05:34:37.665Z,0.90
2024-02-29T05:37:05.792Z,0.88
2024-02-29T05:39:35.293Z,0.93
2024-02-29T05:42:02.796Z,1.20
2024-02-29T05:44:32.364Z,1.00
2024-02-29T05:47:00.113Z,1.38
2024-02-29T05:49:27.588Z,1.45
2024-02-29T05:51:55.045Z,1.33
2024-02-29T05:54:22.608Z,0.93
2024-02-29T05:56:50.074Z,0.77
2024-02-29T05:59:17.602Z,1.08
2024-02-29T06:01:45.069Z,1.08
2024-02-29T06:04:12.630Z,1.30
2024-02-29T06:06:40.211Z,1.40
2024-02-29T06:09:07.803Z,1.08
2024-02-29T06:11:35.322Z,1.15
2024-02-29T06:14:03.966Z,1.02
2024-02-29T06:16:31.567Z,1.08
2024-02-29T06:18:59.064Z,1.30
2024-02-29T06:21:26.747Z,1.65
2024-02-29T06:23:55.766Z,1.67
2024-02-29T06:26:23.358Z,1.48
2024-02-29T06:28:50.961Z,1.70
2024-02-29T06:31:19.102Z,1.88
2024-02-29T06:33:46.834Z,2.03
2024-02-29T06:36:14.652Z,1.50
2024-02-29T06:38:42.240Z,1.55
2024-02-29T06:41:10.747Z,1.17
2024-02-29T06:43:38.410Z,1.27
2024-02-29T06:46:08.294Z,1.40
2024-02-29T06:48:36.021Z,1.63
2024-02-29T06:51:04.032Z,1.45
2024-02-29T06:53:32.422Z,1.75
2024-02-29T06:56:00.150Z,2.00
2024-02-29T06:58:28.150Z,1.58
2024-02-29T07:00:55.728Z,2.05
2024-02-29T07:03:23.830Z,1.30
2024-02-29T07:05:51.467Z,1.98
2024-02-29T07:08:18.977Z,1.80
2024-02-29T07:10:46.520Z,1.42
2024-02-29T07:13:14.453Z,1.23
2024-02-29T07:15:42.091Z,1.42
2024-02-29T07:18:12.023Z,1.77
2024-02-29T07:20:39.544Z,1.30
2024-02-29T07:23:07.660Z,1.42
2024-02-29T07:25:35.196Z,1.63
2024-02-29T07:28:04.795Z,1.38
2024-02-29T07:30:32.278Z,1.95
2024-02-29T07:33:00.072Z,2.10
2024-02-29T07:35:27.483Z,2.17
2024-02-29T07:37:55.465Z,1.33
2024-02-29T07:40:23.022Z,2.30
2024-02-29T07:42:50.886Z,2.00
2024-02-29T07:45:20.753Z,1.73
2024-02-29T07:47:48.904Z,2.50
2024-02-29T07:50:16.590Z,2.63
2024-02-29T07:52:43.991Z,2.08
2024-02-29T07:55:14.912Z,1.50
2024-02-29T07:57:42.969Z,1.83
2024-02-29T08:00:12.507Z,2.40
2024-02-29T08:02:44.175Z,2.63
2024-02-29T08:05:11.776Z,2.45
2024-02-29T08:07:39.616Z,2.90
2024-02-29T08:10:07.904Z,2.63
2024-02-29T08:12:35.736Z,1.70
2024-02-29T08:15:03.414Z,2.08
2024-02-29T08:17:31.778Z,2.42
2024-02-29T08:19:59.284Z,2.53
2024-02-29T08:22:29.882Z,2.00
2024-02-29T08:24:58.658Z,2.33
2024-02-29T08:27:27.392Z,2.85
2024-02-29T08:29:54.980Z,2.53
2024-02-29T08:32:22.578Z,2.83
2024-02-29T08:34:50.091Z,2.38
2024-02-29T08:37:17.652Z,2.85
2024-02-29T08:39:45.281Z,1.98
2024-02-29T08:42:12.853Z,2.55
2024-02-29T08:44:44.501Z,2.35
2024-02-29T08:47:12.081Z,2.33
2024-02-29T08:49:39.938Z,2.75
2024-02-29T08:52:09.675Z,2.58
2024-02-29T08:54:37.949Z,2.55
2024-02-29T08:57:06.093Z,2.47
2024-02-29T08:59:34.325Z,2.50
2024-02-29T09:02:02.690Z,2.45
2024-02-29T09:04:30.652Z,1.92
2024-02-29T09:06:58.196Z,2.25
2024-02-29T09:09:25.985Z,2.35
2024-02-29T09:11:53.533Z,2.15
2024-02-29T09:14:22.024Z,2.67
2024-02-29T09:16:50.044Z,1.70
2024-02-29T09:19:17.780Z,2.63
2024-02-29T09:21:45.391Z,1.63
2024-02-29T09:24:15.923Z,2.33
2024-02-29T09:26:43.888Z,1.95
2024-02-29T09:29:11.362Z,2.70
2024-02-29T09:31:38.911Z,2.40
2024-02-29T09:34:06.510Z,2.00
2024-02-29T09:36:34.697Z,2.15
2024-02-29T09:39:02.825Z,3.30
2024-02-29T09:41:49.703Z,2.65
2024-02-29T09:44:18.288Z,1.88
2024-02-29T09:46:48.364Z,2.85
2024-02-29T09:49:16.958Z,2.80
2024-02-29T09:51:46.084Z,2.95
2024-02-29T09:54:18.004Z,3.13
2024-02-29T09:56:47.230Z,5.88
2024-02-29T09:59:17.907Z,3.55
2024-02-29T10:01:47.940Z,3.10
2024-02-29T10:04:15.466Z,3.95
2024-02-29T10:06:43.025Z,3.20
2024-02-29T10:09:10.708Z,3.58
2024-02-29T10:11:42.327Z,3.47
2024-02-29T10:14:28.088Z,3.28
2024-02-29T10:16:56.430Z,3.08
2024-02-29T10:19:25.114Z,3.88
2024-02-29T10:21:53.787Z,3.25
2024-02-29T10:24:25.225Z,3.33
2024-02-29T10:26:52.794Z,2.90
2024-02-29T10:29:22.534Z,3.38
2024-02-29T10:31:51.387Z,3.17
2024-02-29T10:34:20.815Z,3.70
2024-02-29T10:36:48.644Z,4.45
2024-02-29T10:39:16.206Z,3.38
2024-02-29T10:41:50.204Z,3.35
2024-02-29T10:44:23.210Z,5.85
2024-02-29T10:46:52.153Z,6.20
2024-02-29T10:52:23.550Z,7.28
2024-02-29T10:54:56.850Z,7.97
2024-02-29T10:57:28.361Z,7.15
2024-02-29T11:00:00.573Z,7.82
2024-02-29T11:02:28.617Z,5.50
2024-02-29T11:04:56.942Z,7.82
2024-02-29T11:07:24.850Z,12.75
2024-02-29T11:09:54.316Z,11.02
2024-02-29T11:12:23.373Z,6.80
2024-02-29T11:14:53.451Z,8.43
2024-02-29T11:17:21.192Z,8.18
2024-02-29T11:19:58.484Z,5.88
2024-02-29T11:22:34.855Z,4.57
2024-02-29T11:25:11.012Z,5.60
2024-02-29T11:27:39.105Z,5.72
2024-02-29T11:30:07.627Z,7.05
2024-02-29T11:32:36.093Z,6.65
2024-02-29T11:35:04.324Z,5.47
2024-02-29T11:37:34.850Z,6.25
2024-02-29T11:40:06.457Z,4.93
2024-02-29T11:42:34.832Z,4.78
2024-02-29T11:45:02.403Z,5.10
2024-02-29T11:47:31.990Z,4.07
2024-02-29T11:50:01.063Z,3.55
2024-02-29T11:54:59.044Z,3.58
2024-02-29T11:57:27.353Z,4.88
2024-02-29T11:59:56.648Z,3.38
2024-02-29T12:02:24.873Z,4.57
2024-02-29T12:04:52.453Z,5.25
2024-02-29T12:07:21.251Z,4.80
2024-02-29T12:09:49.096Z,5.82
2024-02-29T12:12:17.221Z,5.18
2024-02-29T12:14:45.098Z,5.47
2024-02-29T12:17:12.653Z,4.28
2024-02-29T12:19:42.267Z,3.95
2024-02-29T12:22:14.719Z,7.18
2024-02-29T12:24:45.728Z,8.98
2024-02-29T12:27:13.344Z,6.05
2024-02-29T12:29:43.034Z,5.50
2024-02-29T12:32:11.121Z,4.93
2024-02-29T12:34:39.221Z,4.57
2024-02-29T12:37:11.087Z,3.78
2024-02-29T12:42:06.930Z,3.70
2024-02-29T12:44:35.092Z,4.15
2024-02-29T12:47:02.616Z,3.72
2024-02-29T12:49:30.198Z,5.10
2024-02-29T12:51:57.789Z,3.35
2024-02-29T12:54:25.385Z,5.63
2024-02-29T12:56:52.949Z,4.47
2024-02-29T12:59:20.538Z,4.18
2024-02-29T13:01:54.731Z,4.80
2024-02-29T13:04:22.805Z,4.65
2024-02-29T13:06:50.450Z,5.13
2024-02-29T13:09:21.285Z,4.80
2024-02-29T13:11:49.258Z,4.38
2024-02-29T13:14:17.248Z,4.75
2024-02-29T13:16:44.787Z,4.57
2024-02-29T13:19:16.162Z,5.15
2024-02-29T13:21:44.417Z,4.95
2024-02-29T13:24:12.025Z,5.38
2024-02-29T13:26:39.651Z,4.82
2024-02-29T13:29:07.515Z,4.18
2024-02-29T13:31:35.132Z,3.35
2024-02-29T13:34:04.747Z,4.05
2024-02-29T13:36:32.272Z,5.28
2024-02-29T13:38:59.793Z,4.38
2024-02-29T13:41:27.352Z,4.70
2024-02-29T13:43:54.930Z,4.28
2024-02-29T13:46:22.600Z,4.07
2024-02-29T13:48:50.170Z,3.90
2024-02-29T13:51:17.639Z,3.90
2024-02-29T13:53:45.060Z,3.83
2024-02-29T13:56:14.148Z,3.85
2024-02-29T13:58:41.754Z,4.20
2024-02-29T14:01:10.742Z,4.90
2024-02-29T14:03:39.270Z,5.53
2024-02-29T14:06:07.034Z,4.28
2024-02-29T14:08:34.585Z,4.32
2024-02-29T14:11:02.323Z,4.25
2024-02-29T14:13:29.891Z,4.70
2024-02-29T14:15:57.552Z,4.30
2024-02-29T14:18:25.116Z,5.05
2024-02-29T14:20:52.992Z,4.55
2024-02-29T14:23:20.846Z,4.85
2024-02-29T14:25:48.510Z,4.13
2024-02-29T14:28:16.155Z,3.58
2024-02-29T14:30:43.780Z,3.55
2024-02-29T14:33:11.608Z,3.95
2024-02-29T14:35:39.177Z,3.78
2024-02-29T14:38:06.844Z,3.90
2024-02-29T14:40:34.356Z,4.13
2024-02-29T14:43:01.922Z,4.13
2024-02-29T14:45:29.437Z,3.88
2024-02-29T14:47:57.063Z,4.82
2024-02-29T14:50:24.543Z,3.65
2024-02-29T14:52:52.861Z,4.75
2024-02-29T14:55:20.591Z,3.90
2024-02-29T14:57:48.224Z,4.20
2024-02-29T15:00:16.075Z,4.38
2024-02-29T15:02:43.770Z,4.78
2024-02-29T15:05:11.649Z,4.43
2024-02-29T15:07:40.448Z,4.35
2024-02-29T15:10:09.528Z,3.97
2024-02-29T15:12:37.159Z,4.38
2024-02-29T15:15:05.052Z,4.03
2024-02-29T15:17:34.232Z,3.03
2024-02-29T15:20:02.762Z,4.32
2024-02-29T15:22:32.559Z,3.92
2024-02-29T15:25:00.289Z,4.07
2024-02-29T15:27:29.915Z,3.55
2024-02-29T15:29:57.431Z,4.50
2024-02-29T15:32:25.005Z,3.90
2024-02-29T15:34:52.557Z,3.97
2024-02-29T15:37:20.147Z,3.78
2024-02-29T15:39:47.701Z,4.20
2024-02-29T15:42:15.327Z,3.20
2024-02-29T15:44:43.011Z,3.97
2024-02-29T15:47:10.504Z,4.13
2024-02-29T15:49:38.051Z,3.70
2024-02-29T15:52:06.699Z,3.40
2024-02-29T15:54:34.244Z,3.95
2024-02-29T15:57:01.782Z,3.83
2024-02-29T15:59:30.739Z,3.85
2024-02-29T16:01:58.511Z,5.20
2024-02-29T16:04:26.563Z,4.25
2024-02-29T16:06:54.221Z,4.18
2024-02-29T16:09:21.811Z,4.28
2024-02-29T16:11:49.613Z,4.60
2024-02-29T16:14:17.316Z,3.72
2024-02-29T16:16:44.863Z,4.20
2024-02-29T16:19:14.056Z,3.78
2024-02-29T16:21:41.696Z,4.30
2024-02-29T16:24:09.265Z,4.20
2024-02-29T16:26:37.603Z,4.13
2024-02-29T16:29:05.047Z,4.53
2024-02-29T16:31:32.568Z,4.18
2024-02-29T16:34:00.023Z,4.43
2024-02-29T16:36:27.573Z,4.25
2024-02-29T16:38:55.156Z,4.47
2024-02-29T16:41:24.963Z,3.90
2024-02-29T16:43:52.785Z,4.15
2024-02-29T16:46:23.526Z,4.72
2024-02-29T16:48:52.686Z,4.47
2024-02-29T16:51:20.582Z,3.83
2024-02-29T16:53:48.413Z,4.40
2024-02-29T16:56:15.907Z,4.93
2024-02-29T16:58:43.637Z,4.72
2024-02-29T17:01:11.381Z,4.28
2024-02-29T17:03:39.392Z,4.18
2024-02-29T17:06:06.869Z,5.10
2024-02-29T17:08:34.499Z,8.35
2024-02-29T17:11:02.119Z,4.97
2024-02-29T17:13:29.744Z,5.20
2024-02-29T17:15:57.303Z,4.53
2024-02-29T17:18:26.019Z,5.28
2024-02-29T17:20:54.005Z,4.72
2024-02-29T17:23:21.533Z,4.82
2024-02-29T17:25:49.108Z,5.07
2024-02-29T17:28:16.648Z,4.97
2024-02-29T17:30:44.697Z,4.68
2024-02-29T17:33:12.440Z,4.72
2024-02-29T17:35:40.729Z,4.97
2024-02-29T17:38:08.209Z,4.85
2024-02-29T17:40:35.750Z,3.97
2024-02-29T17:43:03.306Z,4.53
2024-02-29T17:45:30.861Z,4.80
2024-02-29T17:47:58.631Z,4.78
2024-02-29T17:50:27.105Z,5.20
2024-02-29T17:52:54.600Z,4.97
2024-02-29T17:55:22.047Z,4.55
2024-02-29T17:57:49.698Z,4.72
2024-02-29T18:00:17.596Z,4.47
2024-02-29T18:02:45.130Z,4.18
2024-02-29T18:05:13.312Z,4.47
2024-02-29T18:07:47.559Z,4.93
2024-02-29T18:10:22.863Z,4.45
2024-02-29T18:12:50.433Z,4.35
2024-02-29T18:15:18.042Z,4.97
2024-02-29T18:17:45.713Z,4.28
2024-02-29T18:20:15.874Z,4.57
2024-02-29T18:22:44.053Z,5.63
2024-02-29T18:25:11.649Z,4.50
2024-02-29T18:27:39.352Z,4.90
2024-02-29T18:30:08.370Z,4.38
2024-02-29T18:32:36.078Z,5.15
2024-02-29T18:35:09.975Z,5.53
2024-02-29T18:37:38.792Z,4.53
2024-02-29T18:40:08.692Z,5.07
2024-02-29T18:42:36.259Z,4.90
2024-02-29T18:45:03.781Z,4.43
2024-02-29T18:47:34.485Z,4.30
2024-02-29T18:50:02.615Z,5.25
2024-02-29T18:52:30.251Z,4.38
2024-02-29T18:54:57.747Z,4.00
2024-02-29T18:57:25.364Z,4.63
2024-02-29T18:59:52.895Z,4.50
2024-02-29T19:02:20.471Z,4.63
2024-02-29T19:04:52.667Z,5.18
2024-02-29T19:07:20.736Z,4.35
2024-02-29T19:09:48.923Z,5.00
2024-02-29T19:12:16.981Z,5.03
2024-02-29T19:14:44.424Z,4.90
2024-02-29T19:17:11.941Z,4.47
2024-02-29T19:19:39.534Z,4.68
2024-02-29T19:22:07.005Z,5.18
2024-02-29T19:24:34.580Z,4.53
2024-02-29T19:27:02.028Z,4.47
2024-02-29T19:29:30.345Z,4.78
2024-02-29T19:31:57.769Z,4.95
2024-02-29T19:34:25.718Z,4.35
2024-02-29T19:36:53.257Z,4.68
2024-02-29T19:39:20.769Z,5.60
2024-02-29T19:41:48.707Z,5.35
2024-02-29T19:44:16.154Z,4.50
2024-02-29T19:46:48.248Z,4.78
2024-02-29T19:51:44.241Z,4.05
2024-02-29T19:54:12.077Z,5.60
2024-02-29T19:56:40.240Z,5.43
2024-02-29T19:59:07.940Z,5.03
2024-02-29T20:01:36.017Z,6.03
2024-02-29T20:04:03.781Z,5.20
2024-02-29T20:06:31.278Z,5.28
2024-02-29T20:08:59.078Z,6.07
2024-02-29T20:11:26.644Z,5.57
2024-02-29T20:13:54.192Z,4.57
2024-02-29T20:16:21.740Z,6.53
2024-02-29T20:18:49.189Z,6.13
2024-02-29T20:21:17.473Z,7.15
2024-02-29T20:23:44.942Z,5.07
2024-02-29T20:26:17.577Z,7.28
2024-02-29T20:28:44.975Z,6.82
2024-02-29T20:31:12.576Z,6.80
2024-02-29T20:33:42.487Z,6.85
2024-02-29T20:36:11.268Z,6.47
2024-02-29T20:38:38.830Z,6.30
2024-02-29T20:41:06.607Z,6.45
2024-02-29T20:43:34.136Z,7.25
2024-02-29T20:46:01.638Z,6.13
2024-02-29T20:48:29.151Z,6.45
2024-02-29T20:50:56.662Z,6.07
2024-02-29T20:53:24.247Z,7.13
2024-02-29T20:55:51.830Z,6.57
2024-02-29T20:58:19.353Z,5.95
2024-02-29T21:00:48.122Z,6.68
2024-02-29T21:03:15.764Z,6.78
2024-02-29T21:05:43.258Z,6.97
2024-02-29T21:08:10.722Z,6.43
2024-02-29T21:10:38.381Z,6.03
2024-02-29T21:13:06.040Z,6.80
2024-02-29T21:15:33.806Z,6.20
2024-02-29T21:18:01.328Z,6.47
2024-02-29T21:20:29.247Z,6.78
2024-02-29T21:22:56.809Z,6.35
2024-02-29T21:25:26.100Z,7.15
2024-02-29T21:27:53.787Z,6.75
2024-02-29T21:30:21.354Z,7.03
2024-02-29T21:32:50.318Z,6.30
2024-02-29T21:35:20.549Z,6.60
2024-02-29T21:37:47.991Z,7.05
2024-02-29T21:40:15.631Z,6.50
2024-02-29T21:42:43.125Z,6.78
2024-02-29T21:45:10.954Z,7.15
2024-02-29T21:47:38.771Z,7.05
2024-02-29T21:50:06.910Z,7.13
2024-02-29T21:52:34.639Z,6.93
2024-02-29T21:55:02.239Z,7.22
2024-02-29T21:57:31.278Z,7.00
2024-02-29T21:59:58.744Z,7.05
2024-02-29T22:02:26.264Z,7.47
2024-02-29T22:04:53.731Z,7.05
2024-02-29T22:07:21.658Z,7.65
2024-02-29T22:09:49.833Z,7.15
2024-02-29T22:12:17.266Z,7.03
2024-02-29T22:14:44.700Z,7.63
2024-02-29T22:17:12.204Z,7.40
2024-02-29T22:19:39.700Z,8.63
2024-02-29T22:22:07.536Z,6.82
2024-02-29T22:24:35.381Z,8.05
2024-02-29T22:27:02.818Z,6.57
2024-02-29T22:29:30.254Z,6.32
2024-02-29T22:31:57.659Z,6.65
2024-02-29T22:34:25.143Z,7.38
2024-02-29T22:36:52.785Z,7.88
2024-02-29T22:39:20.582Z,8.18
2024-02-29T22:41:56.529Z,7.22
2024-02-29T22:44:27.998Z,7.97
2024-02-29T22:46:55.503Z,8.90
2024-02-29T22:49:23.233Z,7.63
2024-02-29T22:51:50.912Z,7.57
2024-02-29T22:54:19.315Z,7.57
2024-02-29T22:56:47.157Z,7.75
2024-02-29T22:59:14.651Z,7.25
2024-02-29T23:01:46.903Z,7.70
2024-02-29T23:04:15.442Z,7.93
2024-02-29T23:06:43.201Z,9.25
2024-02-29T23:09:10.829Z,8.55
2024-02-29T23:11:39.015Z,8.98
2024-02-29T23:14:06.758Z,8.65
2024-02-29T23:16:34.443Z,8.38
2024-02-29T23:19:02.226Z,8.60
2024-02-29T23:21:29.814Z,9.02
2024-02-29T23:23:57.175Z,8.38
2024-02-29T23:26:24.626Z,7.75
2024-02-29T23:28:52.037Z,8.02
2024-02-29T23:31:19.562Z,7.70
2024-02-29T23:33:47.192Z,7.65
2024-02-29T23:36:15.194Z,7.20
2024-02-29T23:38:42.690Z,7.38
2024-02-29T23:41:10.164Z,7.05
2024-02-29T23:43:39.709Z,8.02
2024-02-29T23:46:07.161Z,8.90
2024-02-29T23:48:34.805Z,7.40
2024-02-29T23:51:02.302Z,7.55
2024-02-29T23:53:29.781Z,8.32
2024-02-29T23:55:57.170Z,8.48
2024-02-29T23:58:24.640Z,7.13
